Time,TemperatureF,DewpointF,PressureIn,WindDirection,WindDirectionDegrees,WindSpeedMPH,WindSpeedGustMPH,Humidity,HourlyPrecipIn,Conditions,Clouds,dailyrainin,SolarRadiationWatts/m^2,SoftwareType,DateUTC
2013-01-13 00:02:00,60.0,53.0,-100.00,SE,130,4.0,7.0,77,0.00,,,0.00,0.000000,,2013-01-13 10:02:00,
2013-01-13 00:12:00,60.0,53.0,-100.00,SE,130,4.0,7.0,77,0.00,,,0.00,0.000000,,2013-01-13 10:12:00,
2013-01-13 00:22:00,60.0,53.0,-100.00,SE,130,4.0,7.0,77,0.00,,,0.00,0.000000,,2013-01-13 10:22:00,
2013-01-13 00:32:00,60.0,53.0,-100.00,SE,130,4.0,7.0,77,0.00,,,0.00,0.000000,,2013-01-13 10:32:00,
2013-01-13 01:02:00,60.0,55.0,-100.00,WSW,254,1.0,6.0,83,0.00,,,0.00,0.000000,,2013-01-13 11:02:00,
2013-01-13 01:12:00,60.0,55.0,-100.00,WSW,254,1.0,6.0,83,0.00,,,0.00,0.000000,,2013-01-13 11:12:00,
2013-01-13 01:22:00,60.0,55.0,-100.00,WSW,254,1.0,6.0,83,0.00,,,0.00,0.000000,,2013-01-13 11:22:00,
2013-01-13 01:32:00,60.0,55.0,-100.00,WSW,254,1.0,6.0,83,0.00,,,0.00,0.000000,,2013-01-13 11:32:00,
2013-01-13 01:52:00,59.0,51.0,-100.00,SSE,147,4.0,7.0,75,0.00,,,0.00,0.000000,,2013-01-13 11:52:00,
2013-01-13 02:03:00,59.0,51.0,-100.00,SSE,147,4.0,7.0,75,0.00,,,0.00,0.000000,,2013-01-13 12:03:00,
2013-01-13 02:12:00,59.0,51.0,-100.00,SSE,147,4.0,7.0,75,0.00,,,0.00,0.000000,,2013-01-13 12:12:00,
2013-01-13 02:22:00,59.0,51.0,-100.00,SSE,147,4.0,7.0,75,0.00,,,0.00,0.000000,,2013-01-13 12:22:00,
2013-01-13 02:32:00,59.0,51.0,-100.00,SSE,147,4.0,7.0,75,0.00,,,0.00,0.000000,,2013-01-13 12:32:00,
2013-01-13 02:53:00,57.0,49.0,-100.00,SE,146,4.0,8.0,74,0.00,,,0.00,0.000000,,2013-01-13 12:53:00,
2013-01-13 03:02:00,57.0,49.0,-100.00,SE,146,4.0,8.0,74,0.00,,,0.00,0.000000,,2013-01-13 13:02:00,
2013-01-13 03:12:00,57.0,49.0,-100.00,SE,146,4.0,8.0,74,0.00,,,0.00,0.000000,,2013-01-13 13:12:00,
2013-01-13 03:22:00,57.0,49.0,-100.00,SE,146,4.0,8.0,74,0.00,,,0.00,0.000000,,2013-01-13 13:22:00,
2013-01-13 03:32:00,57.0,49.0,-100.00,SE,146,4.0,8.0,74,0.00,,,0.00,0.000000,,2013-01-13 13:32:00,
2013-01-13 03:53:00,58.0,50.0,-100.00,SE,133,4.0,6.0,76,0.00,,,0.00,0.000000,,2013-01-13 13:53:00,
2013-01-13 04:02:00,58.0,50.0,-100.00,SE,133,4.0,6.0,76,0.00,,,0.00,0.000000,,2013-01-13 14:02:00,
2013-01-13 04:12:00,58.0,50.0,-100.00,SE,133,4.0,6.0,76,0.00,,,0.00,0.000000,,2013-01-13 14:12:00,
2013-01-13 04:22:00,58.0,50.0,-100.00,SE,133,4.0,6.0,76,0.00,,,0.00,0.000000,,2013-01-13 14:22:00,
2013-01-13 04:32:00,58.0,50.0,-100.00,SE,133,4.0,6.0,76,0.00,,,0.00,0.000000,,2013-01-13 14:32:00,
2013-01-13 05:03:00,59.0,51.0,-100.00,SSE,158,4.0,7.0,74,0.00,,,0.00,0.000000,,2013-01-13 15:03:00,
2013-01-13 05:12:00,59.0,51.0,-100.00,SSE,158,4.0,7.0,74,0.00,,,0.00,0.000000,,2013-01-13 15:12:00,
2013-01-13 05:22:00,59.0,51.0,-100.00,SSE,158,4.0,7.0,74,0.00,,,0.00,0.000000,,2013-01-13 15:22:00,
2013-01-13 05:33:00,59.0,51.0,-100.00,SSE,158,4.0,7.0,74,0.00,,,0.00,0.000000,,2013-01-13 15:33:00,
2013-01-13 06:03:00,60.0,52.0,-100.00,SSE,159,4.0,6.0,74,0.00,,,0.00,0.000000,,2013-01-13 16:03:00,
2013-01-13 06:12:00,60.0,52.0,-100.00,SSE,159,4.0,6.0,74,0.00,,,0.00,0.000000,,2013-01-13 16:12:00,
2013-01-13 06:22:00,60.0,52.0,-100.00,SSE,159,4.0,6.0,74,0.00,,,0.00,0.000000,,2013-01-13 16:22:00,
2013-01-13 06:33:00,60.0,52.0,-100.00,SSE,159,4.0,6.0,74,0.00,,,0.00,0.000000,,2013-01-13 16:33:00,
2013-01-13 07:03:00,58.0,52.0,-100.00,SSE,149,4.0,6.0,79,0.00,,,0.00,0.000000,,2013-01-13 17:03:00,
2013-01-13 07:12:00,58.0,52.0,-100.00,SSE,149,4.0,6.0,79,0.00,,,0.00,0.000000,,2013-01-13 17:12:00,
2013-01-13 07:22:00,58.0,52.0,-100.00,SSE,149,4.0,6.0,79,0.00,,,0.00,0.000000,,2013-01-13 17:22:00,
2013-01-13 07:32:00,58.0,52.0,-100.00,SSE,149,4.0,6.0,79,0.00,,,0.00,0.000000,,2013-01-13 17:32:00,
2013-01-13 08:03:00,56.0,50.0,-100.00,SE,135,3.0,6.0,79,0.00,,,0.00,11.000000,,2013-01-13 18:03:00,
2013-01-13 08:12:00,56.0,50.0,-100.00,SE,135,3.0,6.0,79,0.00,,,0.00,11.000000,,2013-01-13 18:12:00,
2013-01-13 08:22:00,56.0,50.0,-100.00,SE,135,3.0,6.0,79,0.00,,,0.00,11.000000,,2013-01-13 18:22:00,
2013-01-13 08:32:00,56.0,50.0,-100.00,SE,135,3.0,6.0,79,0.00,,,0.00,11.000000,,2013-01-13 18:32:00,
2013-01-13 09:02:00,70.0,54.0,-100.00,SSW,194,3.0,6.0,57,0.00,,,0.00,206.000000,,2013-01-13 19:02:00,
2013-01-13 09:12:00,70.0,54.0,-100.00,SSW,194,3.0,6.0,57,0.00,,,0.00,206.000000,,2013-01-13 19:12:00,
2013-01-13 09:22:00,70.0,54.0,-100.00,SSW,194,3.0,6.0,57,0.00,,,0.00,206.000000,,2013-01-13 19:22:00,
2013-01-13 09:32:00,70.0,54.0,-100.00,SSW,194,3.0,6.0,57,0.00,,,0.00,206.000000,,2013-01-13 19:32:00,
2013-01-13 10:02:00,75.0,57.0,-100.00,West,260,3.0,6.0,54,0.00,,,0.00,494.000000,,2013-01-13 20:02:00,
2013-01-13 10:12:00,75.0,57.0,-100.00,West,260,3.0,6.0,54,0.00,,,0.00,494.000000,,2013-01-13 20:12:00,
2013-01-13 10:22:00,75.0,57.0,-100.00,West,260,3.0,6.0,54,0.00,,,0.00,494.000000,,2013-01-13 20:22:00,
2013-01-13 10:32:00,75.0,57.0,-100.00,West,260,3.0,6.0,54,0.00,,,0.00,494.000000,,2013-01-13 20:32:00,
2013-01-13 10:53:00,75.0,57.0,-100.00,NNW,345,6.0,10.0,54,0.00,,,0.00,736.000000,,2013-01-13 20:53:00,
2013-01-13 11:03:00,75.0,57.0,-100.00,NNW,345,6.0,10.0,54,0.00,,,0.00,736.000000,,2013-01-13 21:03:00,
2013-01-13 11:12:00,75.0,57.0,-100.00,NNW,345,6.0,10.0,54,0.00,,,0.00,736.000000,,2013-01-13 21:12:00,
2013-01-13 11:22:00,75.0,57.0,-100.00,NNW,345,6.0,10.0,54,0.00,,,0.00,736.000000,,2013-01-13 21:22:00,
2013-01-13 11:32:00,75.0,57.0,-100.00,NNW,345,6.0,10.0,54,0.00,,,0.00,736.000000,,2013-01-13 21:32:00,
2013-01-13 12:02:00,75.0,58.0,-100.00,North,6,7.0,13.0,55,0.00,,,0.00,904.000000,,2013-01-13 22:02:00,
2013-01-13 12:12:00,75.0,58.0,-100.00,North,6,7.0,13.0,55,0.00,,,0.00,904.000000,,2013-01-13 22:12:00,
2013-01-13 12:22:00,75.0,58.0,-100.00,North,6,7.0,13.0,55,0.00,,,0.00,904.000000,,2013-01-13 22:22:00,
2013-01-13 12:33:00,75.0,58.0,-100.00,North,6,7.0,13.0,55,0.00,,,0.00,904.000000,,2013-01-13 22:33:00,
2013-01-13 13:02:00,74.0,59.0,-100.00,NNW,328,6.0,16.0,60,0.00,,,0.00,946.000000,,2013-01-13 23:02:00,
2013-01-13 13:12:00,74.0,59.0,-100.00,NNW,328,6.0,16.0,60,0.00,,,0.00,946.000000,,2013-01-13 23:12:00,
2013-01-13 13:22:00,74.0,59.0,-100.00,NNW,328,6.0,16.0,60,0.00,,,0.00,946.000000,,2013-01-13 23:22:00,
2013-01-13 13:32:00,74.0,59.0,-100.00,NNW,328,6.0,16.0,60,0.00,,,0.00,946.000000,,2013-01-13 23:32:00,
2013-01-13 14:02:00,76.0,62.0,-100.00,West,275,7.0,14.0,61,0.00,,,0.00,878.000000,,2013-01-14 00:02:00,
2013-01-13 14:12:00,76.0,62.0,-100.00,West,275,7.0,14.0,61,0.00,,,0.00,878.000000,,2013-01-14 00:12:00,
2013-01-13 14:22:00,76.0,62.0,-100.00,West,275,7.0,14.0,61,0.00,,,0.00,878.000000,,2013-01-14 00:22:00,
2013-01-13 14:32:00,76.0,62.0,-100.00,West,275,7.0,14.0,61,0.00,,,0.00,878.000000,,2013-01-14 00:32:00,
2013-01-13 15:02:00,71.0,61.0,-100.00,WNW,295,6.0,16.0,70,0.00,,,0.00,502.000000,,2013-01-14 01:02:00,
2013-01-13 15:12:00,71.0,61.0,-100.00,WNW,295,6.0,16.0,70,0.00,,,0.00,502.000000,,2013-01-14 01:12:00,
2013-01-13 15:22:00,71.0,61.0,-100.00,WNW,295,6.0,16.0,70,0.00,,,0.00,502.000000,,2013-01-14 01:22:00,
2013-01-13 15:32:00,71.0,61.0,-100.00,WNW,295,6.0,16.0,70,0.00,,,0.00,502.000000,,2013-01-14 01:32:00,
2013-01-13 16:02:00,70.0,60.0,-100.00,NW,321,4.0,13.0,71,0.00,,,0.00,214.000000,,2013-01-14 02:02:00,
2013-01-13 16:12:00,70.0,60.0,-100.00,NW,321,4.0,13.0,71,0.00,,,0.00,214.000000,,2013-01-14 02:12:00,
2013-01-13 16:22:00,70.0,60.0,-100.00,NW,321,4.0,13.0,71,0.00,,,0.00,214.000000,,2013-01-14 02:22:00,
2013-01-13 16:32:00,70.0,60.0,-100.00,NW,321,4.0,13.0,71,0.00,,,0.00,214.000000,,2013-01-14 02:32:00,
2013-01-13 17:02:00,70.0,63.0,-100.00,WNW,302,3.0,13.0,79,0.00,,,0.00,127.000000,,2013-01-14 03:02:00,
2013-01-13 17:12:00,70.0,63.0,-100.00,WNW,302,3.0,13.0,79,0.00,,,0.00,127.000000,,2013-01-14 03:12:00,
2013-01-13 17:22:00,70.0,63.0,-100.00,WNW,302,3.0,13.0,79,0.00,,,0.00,127.000000,,2013-01-14 03:22:00,
2013-01-13 17:32:00,70.0,63.0,-100.00,WNW,302,3.0,13.0,79,0.00,,,0.00,127.000000,,2013-01-14 03:32:00,
2013-01-13 18:02:00,69.0,61.0,-100.00,North,349,2.0,7.0,76,0.00,,,0.00,92.000000,,2013-01-14 04:02:00,
2013-01-13 18:12:00,69.0,61.0,-100.00,North,349,2.0,7.0,76,0.00,,,0.00,92.000000,,2013-01-14 04:12:00,
2013-01-13 18:22:00,69.0,61.0,-100.00,North,349,2.0,7.0,76,0.00,,,0.00,92.000000,,2013-01-14 04:22:00,
2013-01-13 18:32:00,69.0,61.0,-100.00,North,349,2.0,7.0,76,0.00,,,0.00,92.000000,,2013-01-14 04:32:00,
2013-01-13 19:03:00,67.0,62.0,-100.00,East,91,2.0,5.0,83,0.00,,,0.00,13.000000,,2013-01-14 05:03:00,
2013-01-13 19:12:00,67.0,62.0,-100.00,East,91,2.0,5.0,83,0.00,,,0.00,13.000000,,2013-01-14 05:12:00,
2013-01-13 19:22:00,67.0,62.0,-100.00,East,91,2.0,5.0,83,0.00,,,0.00,13.000000,,2013-01-14 05:22:00,
2013-01-13 19:32:00,67.0,62.0,-100.00,East,91,2.0,5.0,83,0.00,,,0.00,13.000000,,2013-01-14 05:32:00,
2013-01-13 20:02:00,65.0,61.0,-100.00,SSE,147,3.0,4.0,86,0.00,,,0.00,0.000000,,2013-01-14 06:02:00,
2013-01-13 20:12:00,65.0,61.0,-100.00,SSE,147,3.0,4.0,86,0.00,,,0.00,0.000000,,2013-01-14 06:12:00,
2013-01-13 20:22:00,65.0,61.0,-100.00,SSE,147,3.0,4.0,86,0.00,,,0.00,0.000000,,2013-01-14 06:22:00,
2013-01-13 20:32:00,65.0,61.0,-100.00,SSE,147,3.0,4.0,86,0.00,,,0.00,0.000000,,2013-01-14 06:32:00,
2013-01-13 20:53:00,62.0,57.0,-100.00,SE,127,3.0,5.0,83,0.00,,,0.00,0.000000,,2013-01-14 06:53:00,
2013-01-13 21:02:00,62.0,57.0,-100.00,SE,127,3.0,5.0,83,0.00,,,0.00,0.000000,,2013-01-14 07:02:00,
2013-01-13 21:12:00,62.0,57.0,-100.00,SE,127,3.0,5.0,83,0.00,,,0.00,0.000000,,2013-01-14 07:12:00,
2013-01-13 21:22:00,62.0,57.0,-100.00,SE,127,3.0,5.0,83,0.00,,,0.00,0.000000,,2013-01-14 07:22:00,
2013-01-13 21:32:00,62.0,57.0,-100.00,SE,127,3.0,5.0,83,0.00,,,0.00,0.000000,,2013-01-14 07:32:00,
2013-01-13 21:53:00,62.0,56.0,-100.00,SE,131,4.0,5.0,81,0.00,,,0.00,0.000000,,2013-01-14 07:53:00,
2013-01-13 22:02:00,62.0,56.0,-100.00,SE,131,4.0,5.0,81,0.00,,,0.00,0.000000,,2013-01-14 08:02:00,
2013-01-13 22:12:00,62.0,56.0,-100.00,SE,131,4.0,5.0,81,0.00,,,0.00,0.000000,,2013-01-14 08:12:00,
2013-01-13 22:22:00,62.0,56.0,-100.00,SE,131,4.0,5.0,81,0.00,,,0.00,0.000000,,2013-01-14 08:22:00,
2013-01-13 22:32:00,62.0,56.0,-100.00,SE,131,4.0,5.0,81,0.00,,,0.00,0.000000,,2013-01-14 08:32:00,
2013-01-13 22:53:00,64.0,56.0,-100.00,SSE,152,3.0,6.0,76,0.00,,,0.00,0.000000,,2013-01-14 08:53:00,
2013-01-13 23:02:00,64.0,56.0,-100.00,SSE,152,3.0,6.0,76,0.00,,,0.00,0.000000,,2013-01-14 09:02:00,
2013-01-13 23:12:00,64.0,56.0,-100.00,SSE,152,3.0,6.0,76,0.00,,,0.00,0.000000,,2013-01-14 09:12:00,
2013-01-13 23:22:00,64.0,56.0,-100.00,SSE,152,3.0,6.0,76,0.00,,,0.00,0.000000,,2013-01-14 09:22:00,
2013-01-13 23:33:00,64.0,56.0,-100.00,SSE,152,3.0,6.0,76,0.00,,,0.00,0.000000,,2013-01-14 09:33:00,
2013-01-13 23:53:00,63.0,55.0,-100.00,SSE,156,4.0,5.0,74,0.00,,,0.00,0.000000,,2013-01-14 09:53:00,